sensor_id;sensor_type;location;lat;lon;timestamp;temperature;humidity
15481;DHT22;7842;50.904;6.670;2024-03-08T00:02:16;4.60;99.90
15481;DHT22;7842;50.904;6.670;2024-03-08T00:04:42;4.60;99.90
15481;DHT22;7842;50.904;6.670;2024-03-08T00:07:07;4.60;99.90
15481;DHT22;7842;50.904;6.670;2024-03-08T00:09:33;4.60;99.90
15481;DHT22;7842;50.904;6.670;2024-03-08T00:11:59;4.60;99.90
15481;DHT22;7842;50.904;6.670;2024-03-08T00:14:24;4.50;99.90
15481;DHT22;7842;50.904;6.670;2024-03-08T00:16:50;4.50;99.90
15481;DHT22;7842;50.904;6.670;2024-03-08T00:19:18;4.60;99.90
15481;DHT22;7842;50.904;6.670;2024-03-08T00:21:43;4.50;99.90
15481;DHT22;7842;50.904;6.670;2024-03-08T00:24:09;4.40;99.90
15481;DHT22;7842;50.904;6.670;2024-03-08T00:26:35;4.40;99.90
15481;DHT22;7842;50.904;6.670;2024-03-08T00:29:00;4.50;99.90
15481;DHT22;7842;50.904;6.670;2024-03-08T00:31:26;4.40;99.90
15481;DHT22;7842;50.904;6.670;2024-03-08T00:33:51;4.50;99.90
15481;DHT22;7842;50.904;6.670;2024-03-08T00:36:18;4.40;99.90
15481;DHT22;7842;50.904;6.670;2024-03-08T00:38:43;4.40;99.90
15481;DHT22;7842;50.904;6.670;2024-03-08T00:41:09;4.30;99.90
15481;DHT22;7842;50.904;6.670;2024-03-08T00:43:35;4.30;99.90
15481;DHT22;7842;50.904;6.670;2024-03-08T00:46:00;4.20;99.90
15481;DHT22;7842;50.904;6.670;2024-03-08T00:48:26;4.30;99.90
15481;DHT22;7842;50.904;6.670;2024-03-08T00:50:53;4.20;99.90
15481;DHT22;7842;50.904;6.670;2024-03-08T00:53:18;4.20;99.90
15481;DHT22;7842;50.904;6.670;2024-03-08T00:55:44;4.20;99.90
15481;DHT22;7842;50.904;6.670;2024-03-08T00:58:12;4.20;99.90
15481;DHT22;7842;50.904;6.670;2024-03-08T01:00:37;4.10;99.90
15481;DHT22;7842;50.904;6.670;2024-03-08T01:03:04;4.10;99.90
15481;DHT22;7842;50.904;6.670;2024-03-08T01:05:30;4.10;99.90
15481;DHT22;7842;50.904;6.670;2024-03-08T01:07:56;4.10;99.90
15481;DHT22;7842;50.904;6.670;2024-03-08T01:10:22;4.00;99.90
15481;DHT22;7842;50.904;6.670;2024-03-08T01:12:48;4.00;99.90
15481;DHT22;7842;50.904;6.670;2024-03-08T01:15:15;4.00;99.90
15481;DHT22;7842;50.904;6.670;2024-03-08T01:17:41;4.00;99.90
15481;DHT22;7842;50.904;6.670;2024-03-08T01:20:07;4.00;99.90
15481;DHT22;7842;50.904;6.670;2024-03-08T01:22:36;4.00;99.90
15481;DHT22;7842;50.904;6.670;2024-03-08T01:25:02;4.00;99.90
15481;DHT22;7842;50.904;6.670;2024-03-08T01:27:30;4.00;99.90
15481;DHT22;7842;50.904;6.670;2024-03-08T01:29:56;4.00;99.90
15481;DHT22;7842;50.904;6.670;2024-03-08T01:32:22;4.00;99.90
15481;DHT22;7842;50.904;6.670;2024-03-08T01:34:49;4.10;99.90
15481;DHT22;7842;50.904;6.670;2024-03-08T01:37:15;3.90;99.90
15481;DHT22;7842;50.904;6.670;2024-03-08T01:39:41;3.90;99.90
15481;DHT22;7842;50.904;6.670;2024-03-08T01:42:07;3.90;99.90
15481;DHT22;7842;50.904;6.670;2024-03-08T01:44:32;3.90;99.90
15481;DHT22;7842;50.904;6.670;2024-03-08T01:46:58;3.80;99.90
15481;DHT22;7842;50.904;6.670;2024-03-08T01:49:25;3.80;99.90
15481;DHT22;7842;50.904;6.670;2024-03-08T01:51:51;3.90;99.90
15481;DHT22;7842;50.904;6.670;2024-03-08T01:54:19;3.80;99.90
15481;DHT22;7842;50.904;6.670;2024-03-08T01:56:45;3.80;99.90
15481;DHT22;7842;50.904;6.670;2024-03-08T01:59:12;3.80;99.90
15481;DHT22;7842;50.904;6.670;2024-03-08T02:01:38;3.70;99.90
15481;DHT22;7842;50.904;6.670;2024-03-08T02:04:03;3.70;99.90
15481;DHT22;7842;50.904;6.670;2024-03-08T02:06:31;3.70;99.90
15481;DHT22;7842;50.904;6.670;2024-03-08T02:08:57;3.70;99.90
15481;DHT22;7842;50.904;6.670;2024-03-08T02:11:22;3.70;99.90
15481;DHT22;7842;50.904;6.670;2024-03-08T02:13:48;3.60;99.90
15481;DHT22;7842;50.904;6.670;2024-03-08T02:16:23;3.60;99.90
15481;DHT22;7842;50.904;6.670;2024-03-08T02:18:48;3.60;99.90
15481;DHT22;7842;50.904;6.670;2024-03-08T02:21:16;3.60;99.90
15481;DHT22;7842;50.904;6.670;2024-03-08T02:23:44;3.50;99.90
15481;DHT22;7842;50.904;6.670;2024-03-08T02:26:09;3.50;99.90
15481;DHT22;7842;50.904;6.670;2024-03-08T02:28:36;3.50;99.90
15481;DHT22;7842;50.904;6.670;2024-03-08T02:31:02;3.50;99.90
15481;DHT22;7842;50.904;6.670;2024-03-08T02:33:28;3.50;99.90
15481;DHT22;7842;50.904;6.670;2024-03-08T02:35:54;3.50;99.90
15481;DHT22;7842;50.904;6.670;2024-03-08T02:38:22;3.40;99.90
15481;DHT22;7842;50.904;6.670;2024-03-08T02:40:49;3.40;99.90
15481;DHT22;7842;50.904;6.670;2024-03-08T02:43:16;3.40;99.90
15481;DHT22;7842;50.904;6.670;2024-03-08T02:45:43;3.40;99.90
15481;DHT22;7842;50.904;6.670;2024-03-08T02:48:13;3.30;99.90
15481;DHT22;7842;50.904;6.670;2024-03-08T02:50:39;3.30;99.90
15481;DHT22;7842;50.904;6.670;2024-03-08T02:53:08;3.30;99.90
15481;DHT22;7842;50.904;6.670;2024-03-08T02:55:35;3.40;99.90
15481;DHT22;7842;50.904;6.670;2024-03-08T02:58:02;3.30;99.90
15481;DHT22;7842;50.904;6.670;2024-03-08T03:00:28;3.30;99.90
15481;DHT22;7842;50.904;6.670;2024-03-08T03:02:56;3.30;99.90
15481;DHT22;7842;50.904;6.670;2024-03-08T03:05:22;3.30;99.90
15481;DHT22;7842;50.904;6.670;2024-03-08T03:07:48;3.40;99.90
15481;DHT22;7842;50.904;6.670;2024-03-08T03:10:14;3.30;99.90
15481;DHT22;7842;50.904;6.670;2024-03-08T03:12:43;3.30;99.90
15481;DHT22;7842;50.904;6.670;2024-03-08T03:15:10;3.30;99.90
15481;DHT22;7842;50.904;6.670;2024-03-08T03:17:37;3.20;99.90
15481;DHT22;7842;50.904;6.670;2024-03-08T03:20:05;3.20;99.90
15481;DHT22;7842;50.904;6.670;2024-03-08T03:22:36;3.20;99.90
15481;DHT22;7842;50.904;6.670;2024-03-08T03:25:03;3.20;99.90
15481;DHT22;7842;50.904;6.670;2024-03-08T03:27:32;3.20;99.90
15481;DHT22;7842;50.904;6.670;2024-03-08T03:29:58;3.20;99.90
15481;DHT22;7842;50.904;6.670;2024-03-08T03:32:44;3.20;99.90
15481;DHT22;7842;50.904;6.670;2024-03-08T03:35:13;3.20;99.90
15481;DHT22;7842;50.904;6.670;2024-03-08T03:37:38;3.10;99.90
15481;DHT22;7842;50.904;6.670;2024-03-08T03:40:06;3.10;99.90
15481;DHT22;7842;50.904;6.670;2024-03-08T03:42:33;3.10;99.90
15481;DHT22;7842;50.904;6.670;2024-03-08T03:44:59;3.10;99.90
15481;DHT22;7842;50.904;6.670;2024-03-08T03:47:25;3.10;99.90
15481;DHT22;7842;50.904;6.670;2024-03-08T03:49:52;3.10;99.90
15481;DHT22;7842;50.904;6.670;2024-03-08T03:52:19;3.10;99.90
15481;DHT22;7842;50.904;6.670;2024-03-08T03:54:45;3.10;99.90
15481;DHT22;7842;50.904;6.670;2024-03-08T03:57:11;3.10;99.90
15481;DHT22;7842;50.904;6.670;2024-03-08T03:59:37;3.10;99.90
15481;DHT22;7842;50.904;6.670;2024-03-08T04:02:03;3.10;99.90
15481;DHT22;7842;50.904;6.670;2024-03-08T04:04:29;3.00;99.90
15481;DHT22;7842;50.904;6.670;2024-03-08T04:06:55;3.00;99.90
15481;DHT22;7842;50.904;6.670;2024-03-08T04:09:20;3.00;99.90
15481;DHT22;7842;50.904;6.670;2024-03-08T04:11:48;3.00;99.90
15481;DHT22;7842;50.904;6.670;2024-03-08T04:14:13;3.00;99.90
15481;DHT22;7842;50.904;6.670;2024-03-08T04:16:39;3.00;99.90
15481;DHT22;7842;50.904;6.670;2024-03-08T04:19:05;3.00;99.90
15481;DHT22;7842;50.904;6.670;2024-03-08T04:21:30;3.00;99.90
15481;DHT22;7842;50.904;6.670;2024-03-08T04:23:56;3.00;99.90
15481;DHT22;7842;50.904;6.670;2024-03-08T04:26:22;3.00;99.90
15481;DHT22;7842;50.904;6.670;2024-03-08T04:28:48;3.00;99.90
15481;DHT22;7842;50.904;6.670;2024-03-08T04:31:13;3.00;99.90
15481;DHT22;7842;50.904;6.670;2024-03-08T04:33:39;2.90;99.90
15481;DHT22;7842;50.904;6.670;2024-03-08T04:36:05;2.90;99.90
15481;DHT22;7842;50.904;6.670;2024-03-08T04:38:31;2.90;99.90
15481;DHT22;7842;50.904;6.670;2024-03-08T04:40:57;3.00;99.90
15481;DHT22;7842;50.904;6.670;2024-03-08T04:43:23;2.90;99.90
15481;DHT22;7842;50.904;6.670;2024-03-08T04:45:52;2.90;99.90
15481;DHT22;7842;50.904;6.670;2024-03-08T04:48:19;2.90;99.90
15481;DHT22;7842;50.904;6.670;2024-03-08T04:50:45;2.80;99.90
15481;DHT22;7842;50.904;6.670;2024-03-08T04:53:10;2.90;99.90
15481;DHT22;7842;50.904;6.670;2024-03-08T04:55:36;2.90;99.90
15481;DHT22;7842;50.904;6.670;2024-03-08T04:58:03;2.90;99.90
15481;DHT22;7842;50.904;6.670;2024-03-08T05:00:31;2.80;99.90
15481;DHT22;7842;50.904;6.670;2024-03-08T05:02:57;2.80;99.90
15481;DHT22;7842;50.904;6.670;2024-03-08T05:05:23;2.80;99.90
15481;DHT22;7842;50.904;6.670;2024-03-08T05:07:50;2.80;99.90
15481;DHT22;7842;50.904;6.670;2024-03-08T05:10:15;2.80;99.90
15481;DHT22;7842;50.904;6.670;2024-03-08T05:12:43;2.70;99.90
15481;DHT22;7842;50.904;6.670;2024-03-08T05:15:09;2.80;99.90
15481;DHT22;7842;50.904;6.670;2024-03-08T05:17:35;2.70;99.90
15481;DHT22;7842;50.904;6.670;2024-03-08T05:20:00;2.70;99.90
15481;DHT22;7842;50.904;6.670;2024-03-08T05:22:26;2.70;99.90
15481;DHT22;7842;50.904;6.670;2024-03-08T05:24:51;2.80;99.90
15481;DHT22;7842;50.904;6.670;2024-03-08T05:27:17;2.70;99.90
15481;DHT22;7842;50.904;6.670;2024-03-08T05:29:43;2.70;99.90
15481;DHT22;7842;50.904;6.670;2024-03-08T05:32:08;2.70;99.90
15481;DHT22;7842;50.904;6.670;2024-03-08T05:34:35;2.70;99.90
15481;DHT22;7842;50.904;6.670;2024-03-08T05:37:01;2.70;99.90
15481;DHT22;7842;50.904;6.670;2024-03-08T05:39:27;2.70;99.90
15481;DHT22;7842;50.904;6.670;2024-03-08T05:41:52;2.70;99.90
15481;DHT22;7842;50.904;6.670;2024-03-08T05:44:20;2.70;99.90
15481;DHT22;7842;50.904;6.670;2024-03-08T05:46:46;2.60;99.90
15481;DHT22;7842;50.904;6.670;2024-03-08T05:49:12;2.60;99.90
15481;DHT22;7842;50.904;6.670;2024-03-08T05:51:39;2.60;99.90
15481;DHT22;7842;50.904;6.670;2024-03-08T05:54:07;2.60;99.90
15481;DHT22;7842;50.904;6.670;2024-03-08T05:56:34;2.60;99.90
15481;DHT22;7842;50.904;6.670;2024-03-08T05:59:01;2.60;99.90
15481;DHT22;7842;50.904;6.670;2024-03-08T06:01:27;2.60;99.90
15481;DHT22;7842;50.904;6.670;2024-03-08T06:03:54;2.60;99.90
15481;DHT22;7842;50.904;6.670;2024-03-08T06:06:23;2.60;99.90
15481;DHT22;7842;50.904;6.670;2024-03-08T06:08:50;2.60;99.90
15481;DHT22;7842;50.904;6.670;2024-03-08T06:11:17;2.60;99.90
15481;DHT22;7842;50.904;6.670;2024-03-08T06:13:46;2.60;99.90
15481;DHT22;7842;50.904;6.670;2024-03-08T06:16:12;2.60;99.90
15481;DHT22;7842;50.904;6.670;2024-03-08T06:18:38;2.60;99.90
15481;DHT22;7842;50.904;6.670;2024-03-08T06:21:05;2.60;99.90
15481;DHT22;7842;50.904;6.670;2024-03-08T06:23:34;2.60;99.90
15481;DHT22;7842;50.904;6.670;2024-03-08T06:26:04;2.70;99.90
15481;DHT22;7842;50.904;6.670;2024-03-08T06:28:30;2.70;99.90
15481;DHT22;7842;50.904;6.670;2024-03-08T06:30:55;2.70;99.90
15481;DHT22;7842;50.904;6.670;2024-03-08T06:33:21;2.70;99.90
15481;DHT22;7842;50.904;6.670;2024-03-08T06:35:47;2.80;99.90
15481;DHT22;7842;50.904;6.670;2024-03-08T06:38:12;3.10;99.90
15481;DHT22;7842;50.904;6.670;2024-03-08T06:40:38;3.40;99.90
15481;DHT22;7842;50.904;6.670;2024-03-08T06:43:05;3.70;99.90
15481;DHT22;7842;50.904;6.670;2024-03-08T06:45:32;3.70;99.90
15481;DHT22;7842;50.904;6.670;2024-03-08T06:47:57;3.70;99.90
15481;DHT22;7842;50.904;6.670;2024-03-08T06:50:23;3.70;99.90
15481;DHT22;7842;50.904;6.670;2024-03-08T06:52:49;3.60;99.90
15481;DHT22;7842;50.904;6.670;2024-03-08T06:55:22;3.60;99.90
15481;DHT22;7842;50.904;6.670;2024-03-08T06:57:47;3.60;99.90
15481;DHT22;7842;50.904;6.670;2024-03-08T07:00:13;3.60;99.90
15481;DHT22;7842;50.904;6.670;2024-03-08T07:02:44;3.80;99.90
15481;DHT22;7842;50.904;6.670;2024-03-08T07:05:11;4.00;99.90
15481;DHT22;7842;50.904;6.670;2024-03-08T07:07:37;3.90;99.90
15481;DHT22;7842;50.904;6.670;2024-03-08T07:10:03;3.80;99.90
15481;DHT22;7842;50.904;6.670;2024-03-08T07:12:31;3.80;99.90
15481;DHT22;7842;50.904;6.670;2024-03-08T07:14:57;3.80;99.90
15481;DHT22;7842;50.904;6.670;2024-03-08T07:17:23;3.90;99.90
15481;DHT22;7842;50.904;6.670;2024-03-08T07:19:50;3.90;99.90
15481;DHT22;7842;50.904;6.670;2024-03-08T07:22:16;3.90;99.90
15481;DHT22;7842;50.904;6.670;2024-03-08T07:24:42;4.00;99.90
15481;DHT22;7842;50.904;6.670;2024-03-08T07:27:14;4.20;99.90
15481;DHT22;7842;50.904;6.670;2024-03-08T07:29:39;4.20;99.90
15481;DHT22;7842;50.904;6.670;2024-03-08T07:32:05;4.30;99.90
15481;DHT22;7842;50.904;6.670;2024-03-08T07:34:51;4.30;99.90
15481;DHT22;7842;50.904;6.670;2024-03-08T07:37:17;4.40;99.90
15481;DHT22;7842;50.904;6.670;2024-03-08T07:39:43;4.50;99.90
15481;DHT22;7842;50.904;6.670;2024-03-08T07:42:09;4.50;99.90
15481;DHT22;7842;50.904;6.670;2024-03-08T07:44:36;4.40;99.90
15481;DHT22;7842;50.904;6.670;2024-03-08T07:47:02;4.50;99.90
15481;DHT22;7842;50.904;6.670;2024-03-08T07:49:29;4.70;99.90
15481;DHT22;7842;50.904;6.670;2024-03-08T07:51:58;4.70;99.90
15481;DHT22;7842;50.904;6.670;2024-03-08T07:54:24;4.90;99.90
15481;DHT22;7842;50.904;6.670;2024-03-08T07:56:51;5.00;99.90
15481;DHT22;7842;50.904;6.670;2024-03-08T07:59:18;5.00;99.90
15481;DHT22;7842;50.904;6.670;2024-03-08T08:01:43;5.00;99.90
15481;DHT22;7842;50.904;6.670;2024-03-08T08:04:10;5.10;99.90
15481;DHT22;7842;50.904;6.670;2024-03-08T08:06:38;5.20;99.90
15481;DHT22;7842;50.904;6.670;2024-03-08T08:09:07;5.30;99.90
15481;DHT22;7842;50.904;6.670;2024-03-08T08:11:40;5.40;99.90
15481;DHT22;7842;50.904;6.670;2024-03-08T08:14:06;5.40;99.90
15481;DHT22;7842;50.904;6.670;2024-03-08T08:16:35;5.50;99.90
15481;DHT22;7842;50.904;6.670;2024-03-08T08:19:02;5.40;99.90
15481;DHT22;7842;50.904;6.670;2024-03-08T08:21:34;5.50;99.90
15481;DHT22;7842;50.904;6.670;2024-03-08T08:23:59;5.40;99.90
15481;DHT22;7842;50.904;6.670;2024-03-08T08:26:25;5.60;99.90
15481;DHT22;7842;50.904;6.670;2024-03-08T08:28:51;5.70;99.90
15481;DHT22;7842;50.904;6.670;2024-03-08T08:31:18;5.70;99.90
15481;DHT22;7842;50.904;6.670;2024-03-08T08:33:44;5.90;99.90
15481;DHT22;7842;50.904;6.670;2024-03-08T08:36:10;5.80;99.90
15481;DHT22;7842;50.904;6.670;2024-03-08T08:38:36;5.90;99.90
15481;DHT22;7842;50.904;6.670;2024-03-08T08:41:01;6.00;99.90
15481;DHT22;7842;50.904;6.670;2024-03-08T08:43:27;6.30;99.90
15481;DHT22;7842;50.904;6.670;2024-03-08T08:45:53;6.50;99.90
15481;DHT22;7842;50.904;6.670;2024-03-08T08:48:20;6.30;99.90
15481;DHT22;7842;50.904;6.670;2024-03-08T08:50:46;6.50;99.90
15481;DHT22;7842;50.904;6.670;2024-03-08T08:53:12;6.60;99.90
15481;DHT22;7842;50.904;6.670;2024-03-08T08:55:40;6.50;99.90
15481;DHT22;7842;50.904;6.670;2024-03-08T08:58:06;6.40;99.90
15481;DHT22;7842;50.904;6.670;2024-03-08T09:00:33;6.30;99.90
15481;DHT22;7842;50.904;6.670;2024-03-08T09:03:00;6.50;99.90
15481;DHT22;7842;50.904;6.670;2024-03-08T09:05:27;6.60;99.90
15481;DHT22;7842;50.904;6.670;2024-03-08T09:07:53;6.80;99.90
15481;DHT22;7842;50.904;6.670;2024-03-08T09:10:19;6.80;99.90
15481;DHT22;7842;50.904;6.670;2024-03-08T09:12:44;6.80;99.90
15481;DHT22;7842;50.904;6.670;2024-03-08T09:15:10;6.80;99.90
15481;DHT22;7842;50.904;6.670;2024-03-08T09:17:39;6.70;99.90
15481;DHT22;7842;50.904;6.670;2024-03-08T09:20:10;6.60;99.90
15481;DHT22;7842;50.904;6.670;2024-03-08T09:22:36;6.80;99.90
15481;DHT22;7842;50.904;6.670;2024-03-08T09:25:02;6.80;99.90
15481;DHT22;7842;50.904;6.670;2024-03-08T09:27:30;6.80;99.90
15481;DHT22;7842;50.904;6.670;2024-03-08T09:29:56;6.80;99.90
15481;DHT22;7842;50.904;6.670;2024-03-08T09:32:21;7.00;99.90
15481;DHT22;7842;50.904;6.670;2024-03-08T09:34:48;7.00;99.90
15481;DHT22;7842;50.904;6.670;2024-03-08T09:37:13;7.10;99.90
15481;DHT22;7842;50.904;6.670;2024-03-08T09:39:39;7.10;99.90
15481;DHT22;7842;50.904;6.670;2024-03-08T09:42:05;7.20;99.90
15481;DHT22;7842;50.904;6.670;2024-03-08T09:44:31;7.30;99.90
15481;DHT22;7842;50.904;6.670;2024-03-08T09:46:58;7.30;99.90
15481;DHT22;7842;50.904;6.670;2024-03-08T09:49:24;7.30;99.90
15481;DHT22;7842;50.904;6.670;2024-03-08T09:51:50;7.60;99.90
15481;DHT22;7842;50.904;6.670;2024-03-08T09:54:17;7.50;99.90
15481;DHT22;7842;50.904;6.670;2024-03-08T09:56:43;7.50;99.90
15481;DHT22;7842;50.904;6.670;2024-03-08T09:59:10;7.60;99.90
15481;DHT22;7842;50.904;6.670;2024-03-08T10:02:14;7.70;99.90
15481;DHT22;7842;50.904;6.670;2024-03-08T10:04:40;7.90;99.90
15481;DHT22;7842;50.904;6.670;2024-03-08T10:07:11;8.00;99.90
15481;DHT22;7842;50.904;6.670;2024-03-08T10:09:38;8.10;99.90
15481;DHT22;7842;50.904;6.670;2024-03-08T10:12:04;8.10;99.90
15481;DHT22;7842;50.904;6.670;2024-03-08T10:14:30;8.10;99.90
15481;DHT22;7842;50.904;6.670;2024-03-08T10:16:57;8.10;99.90
15481;DHT22;7842;50.904;6.670;2024-03-08T10:19:26;8.20;99.90
15481;DHT22;7842;50.904;6.670;2024-03-08T10:21:52;8.20;99.90
15481;DHT22;7842;50.904;6.670;2024-03-08T10:24:23;8.20;99.90
15481;DHT22;7842;50.904;6.670;2024-03-08T10:27:02;8.30;99.90
15481;DHT22;7842;50.904;6.670;2024-03-08T10:29:30;8.60;99.90
15481;DHT22;7842;50.904;6.670;2024-03-08T10:31:56;8.70;99.90
15481;DHT22;7842;50.904;6.670;2024-03-08T10:34:23;8.60;99.90
15481;DHT22;7842;50.904;6.670;2024-03-08T10:36:50;8.50;99.90
15481;DHT22;7842;50.904;6.670;2024-03-08T10:39:23;8.50;99.90
15481;DHT22;7842;50.904;6.670;2024-03-08T10:41:56;8.50;99.90
15481;DHT22;7842;50.904;6.670;2024-03-08T10:49:26;8.50;99.90
15481;DHT22;7842;50.904;6.670;2024-03-08T10:51:57;8.60;99.90
15481;DHT22;7842;50.904;6.670;2024-03-08T10:54:25;8.70;99.90
15481;DHT22;7842;50.904;6.670;2024-03-08T10:56:51;8.70;99.90
15481;DHT22;7842;50.904;6.670;2024-03-08T10:59:18;8.70;99.90
15481;DHT22;7842;50.904;6.670;2024-03-08T11:01:44;8.90;99.90
15481;DHT22;7842;50.904;6.670;2024-03-08T11:04:10;8.90;99.90
15481;DHT22;7842;50.904;6.670;2024-03-08T11:09:30;8.90;99.90
15481;DHT22;7842;50.904;6.670;2024-03-08T11:12:18;9.00;99.90
15481;DHT22;7842;50.904;6.670;2024-03-08T11:14:48;9.00;99.90
15481;DHT22;7842;50.904;6.670;2024-03-08T11:19:56;9.10;99.90
15481;DHT22;7842;50.904;6.670;2024-03-08T11:22:25;9.10;99.90
15481;DHT22;7842;50.904;6.670;2024-03-08T11:24:52;9.30;99.90
15481;DHT22;7842;50.904;6.670;2024-03-08T11:27:18;9.30;99.90
15481;DHT22;7842;50.904;6.670;2024-03-08T11:29:59;9.20;99.90
15481;DHT22;7842;50.904;6.670;2024-03-08T11:32:29;9.30;99.90
15481;DHT22;7842;50.904;6.670;2024-03-08T11:34:55;9.40;99.90
15481;DHT22;7842;50.904;6.670;2024-03-08T11:37:21;9.30;99.90
15481;DHT22;7842;50.904;6.670;2024-03-08T11:39:51;9.30;99.90
15481;DHT22;7842;50.904;6.670;2024-03-08T11:42:18;9.40;99.90
15481;DHT22;7842;50.904;6.670;2024-03-08T11:44:48;9.40;99.90
15481;DHT22;7842;50.904;6.670;2024-03-08T11:47:14;9.40;99.90
15481;DHT22;7842;50.904;6.670;2024-03-08T11:49:40;9.60;99.90
15481;DHT22;7842;50.904;6.670;2024-03-08T11:52:13;9.50;99.90
15481;DHT22;7842;50.904;6.670;2024-03-08T11:54:43;9.50;99.90
15481;DHT22;7842;50.904;6.670;2024-03-08T11:57:13;9.60;99.90
15481;DHT22;7842;50.904;6.670;2024-03-08T11:59:38;9.70;99.90
15481;DHT22;7842;50.904;6.670;2024-03-08T12:02:07;9.60;99.90
15481;DHT22;7842;50.904;6.670;2024-03-08T12:04:36;9.60;99.90
15481;DHT22;7842;50.904;6.670;2024-03-08T12:07:03;9.50;99.90
15481;DHT22;7842;50.904;6.670;2024-03-08T12:09:37;9.60;99.90
15481;DHT22;7842;50.904;6.670;2024-03-08T12:12:03;9.70;99.90
15481;DHT22;7842;50.904;6.670;2024-03-08T12:14:30;9.70;99.90
15481;DHT22;7842;50.904;6.670;2024-03-08T12:16:57;9.70;99.90
15481;DHT22;7842;50.904;6.670;2024-03-08T12:19:23;9.80;99.90
15481;DHT22;7842;50.904;6.670;2024-03-08T12:21:48;9.70;99.90
15481;DHT22;7842;50.904;6.670;2024-03-08T12:24:16;9.80;99.90
15481;DHT22;7842;50.904;6.670;2024-03-08T12:26:45;9.80;99.90
15481;DHT22;7842;50.904;6.670;2024-03-08T12:29:26;9.80;99.90
15481;DHT22;7842;50.904;6.670;2024-03-08T12:31:59;9.90;99.90
15481;DHT22;7842;50.904;6.670;2024-03-08T12:34:27;9.90;99.90
15481;DHT22;7842;50.904;6.670;2024-03-08T12:36:54;10.10;99.90
15481;DHT22;7842;50.904;6.670;2024-03-08T12:39:21;10.00;99.90
15481;DHT22;7842;50.904;6.670;2024-03-08T12:41:56;10.00;99.90
15481;DHT22;7842;50.904;6.670;2024-03-08T12:44:27;10.20;99.90
15481;DHT22;7842;50.904;6.670;2024-03-08T12:46:54;10.30;99.90
15481;DHT22;7842;50.904;6.670;2024-03-08T12:49:20;10.20;99.90
15481;DHT22;7842;50.904;6.670;2024-03-08T12:51:48;10.20;99.90
15481;DHT22;7842;50.904;6.670;2024-03-08T12:54:14;10.20;99.90
15481;DHT22;7842;50.904;6.670;2024-03-08T12:56:39;10.20;99.90
15481;DHT22;7842;50.904;6.670;2024-03-08T12:59:07;10.30;99.90
15481;DHT22;7842;50.904;6.670;2024-03-08T13:01:33;10.30;99.90
15481;DHT22;7842;50.904;6.670;2024-03-08T13:03:59;10.40;99.90
15481;DHT22;7842;50.904;6.670;2024-03-08T13:06:27;10.40;99.90
15481;DHT22;7842;50.904;6.670;2024-03-08T13:08:54;10.40;99.90
15481;DHT22;7842;50.904;6.670;2024-03-08T13:11:21;10.50;99.90
15481;DHT22;7842;50.904;6.670;2024-03-08T13:13:47;10.60;99.90
15481;DHT22;7842;50.904;6.670;2024-03-08T13:16:13;10.60;99.90
15481;DHT22;7842;50.904;6.670;2024-03-08T13:18:43;10.60;99.90
15481;DHT22;7842;50.904;6.670;2024-03-08T13:21:10;10.50;99.90
15481;DHT22;7842;50.904;6.670;2024-03-08T13:23:37;10.60;99.90
15481;DHT22;7842;50.904;6.670;2024-03-08T13:26:10;10.60;99.90
15481;DHT22;7842;50.904;6.670;2024-03-08T13:28:48;10.60;99.90
15481;DHT22;7842;50.904;6.670;2024-03-08T13:31:19;10.60;99.90
15481;DHT22;7842;50.904;6.670;2024-03-08T13:33:45;10.60;99.90
15481;DHT22;7842;50.904;6.670;2024-03-08T13:36:12;10.70;99.90
15481;DHT22;7842;50.904;6.670;2024-03-08T13:38:45;10.60;99.90
15481;DHT22;7842;50.904;6.670;2024-03-08T13:41:12;10.70;99.90
15481;DHT22;7842;50.904;6.670;2024-03-08T13:43:40;10.80;99.90
15481;DHT22;7842;50.904;6.670;2024-03-08T13:46:06;10.90;99.90
15481;DHT22;7842;50.904;6.670;2024-03-08T13:48:33;11.00;99.90
15481;DHT22;7842;50.904;6.670;2024-03-08T13:50:58;11.10;99.90
15481;DHT22;7842;50.904;6.670;2024-03-08T13:53:26;11.10;99.90
15481;DHT22;7842;50.904;6.670;2024-03-08T13:55:51;11.10;99.90
15481;DHT22;7842;50.904;6.670;2024-03-08T13:58:17;11.20;99.90
15481;DHT22;7842;50.904;6.670;2024-03-08T14:00:43;11.30;99.90
15481;DHT22;7842;50.904;6.670;2024-03-08T14:03:11;11.20;99.90
15481;DHT22;7842;50.904;6.670;2024-03-08T14:05:41;11.30;99.90
15481;DHT22;7842;50.904;6.670;2024-03-08T14:08:08;11.20;99.90
15481;DHT22;7842;50.904;6.670;2024-03-08T14:10:34;11.20;99.90
15481;DHT22;7842;50.904;6.670;2024-03-08T14:13:02;11.20;99.90
15481;DHT22;7842;50.904;6.670;2024-03-08T14:15:31;11.20;99.90
15481;DHT22;7842;50.904;6.670;2024-03-08T14:17:56;11.20;99.90
15481;DHT22;7842;50.904;6.670;2024-03-08T14:20:23;11.20;99.90
15481;DHT22;7842;50.904;6.670;2024-03-08T14:22:55;11.20;99.90
15481;DHT22;7842;50.904;6.670;2024-03-08T14:25:21;11.30;99.90
15481;DHT22;7842;50.904;6.670;2024-03-08T14:27:49;11.30;99.90
15481;DHT22;7842;50.904;6.670;2024-03-08T14:30:15;11.30;99.90
15481;DHT22;7842;50.904;6.670;2024-03-08T14:33:00;11.20;99.90
15481;DHT22;7842;50.904;6.670;2024-03-08T14:35:26;11.40;99.90
15481;DHT22;7842;50.904;6.670;2024-03-08T14:37:53;11.40;99.90
15481;DHT22;7842;50.904;6.670;2024-03-08T14:40:18;11.30;99.90
15481;DHT22;7842;50.904;6.670;2024-03-08T14:42:48;11.30;99.90
15481;DHT22;7842;50.904;6.670;2024-03-08T14:45:15;11.30;99.90
15481;DHT22;7842;50.904;6.670;2024-03-08T14:47:41;11.30;99.90
15481;DHT22;7842;50.904;6.670;2024-03-08T14:50:08;11.30;99.90
15481;DHT22;7842;50.904;6.670;2024-03-08T14:52:35;11.40;99.90
15481;DHT22;7842;50.904;6.670;2024-03-08T14:55:01;11.30;99.90
15481;DHT22;7842;50.904;6.670;2024-03-08T14:57:28;11.30;99.90
15481;DHT22;7842;50.904;6.670;2024-03-08T14:59:54;11.40;99.90
15481;DHT22;7842;50.904;6.670;2024-03-08T15:02:20;11.30;99.90
15481;DHT22;7842;50.904;6.670;2024-03-08T15:04:47;11.40;99.90
15481;DHT22;7842;50.904;6.670;2024-03-08T15:07:23;11.40;99.90
15481;DHT22;7842;50.904;6.670;2024-03-08T15:09:49;11.30;99.90
15481;DHT22;7842;50.904;6.670;2024-03-08T15:12:14;11.20;99.90
15481;DHT22;7842;50.904;6.670;2024-03-08T15:14:40;11.10;99.90
15481;DHT22;7842;50.904;6.670;2024-03-08T15:17:09;11.10;99.90
15481;DHT22;7842;50.904;6.670;2024-03-08T15:19:38;11.20;99.90
15481;DHT22;7842;50.904;6.670;2024-03-08T15:22:04;11.20;99.90
15481;DHT22;7842;50.904;6.670;2024-03-08T15:24:30;11.20;99.90
15481;DHT22;7842;50.904;6.670;2024-03-08T15:26:56;11.20;99.90
15481;DHT22;7842;50.904;6.670;2024-03-08T15:29:22;11.20;99.90
15481;DHT22;7842;50.904;6.670;2024-03-08T15:31:52;11.20;99.90
15481;DHT22;7842;50.904;6.670;2024-03-08T15:34:20;11.20;99.90
15481;DHT22;7842;50.904;6.670;2024-03-08T15:36:49;11.10;99.90
15481;DHT22;7842;50.904;6.670;2024-03-08T15:39:17;11.20;99.90
15481;DHT22;7842;50.904;6.670;2024-03-08T15:41:42;11.20;99.90
15481;DHT22;7842;50.904;6.670;2024-03-08T15:44:09;11.10;99.90
15481;DHT22;7842;50.904;6.670;2024-03-08T15:46:38;11.10;99.90
15481;DHT22;7842;50.904;6.670;2024-03-08T15:49:05;11.10;99.90
15481;DHT22;7842;50.904;6.670;2024-03-08T15:51:32;11.10;99.90
15481;DHT22;7842;50.904;6.670;2024-03-08T15:53:58;11.10;99.90
15481;DHT22;7842;50.904;6.670;2024-03-08T15:56:24;11.10;99.90
15481;DHT22;7842;50.904;6.670;2024-03-08T15:58:51;11.10;99.90
15481;DHT22;7842;50.904;6.670;2024-03-08T16:01:18;11.00;99.90
15481;DHT22;7842;50.904;6.670;2024-03-08T16:03:44;11.00;99.90
15481;DHT22;7842;50.904;6.670;2024-03-08T16:06:11;11.00;99.90
15481;DHT22;7842;50.904;6.670;2024-03-08T16:08:36;10.90;99.90